Ralls, Texas
Current Conditions -  °F | °C
As of 5:53 PM on Friday 21 Nov 2014 (Local Time) from KLBB Reporting Station
Overcast Overcast  
Wind Chill: 55°   Ceiling: 23000
Heat Index: 55°   Visibility: 10mi
Dew Point: 36°   Wind: 9mph
Humidity: 49%   Direction: 150°SSE
Pressure: 29.98"   Gusts: NA
Location:  33.67°N, 101.39°W
Report Text: KLBB 212353Z 15008KT 10SM BKN230 OVC300 13/02 A2998 RMK AO2 SLP144 T01280022 10189 20128 53005
Loading
Personal Weather Stations






























Interactive Weather Map New forecast layout! Learn more

10-Day Weather Forecast

Advertisements
Track Severe Weather on mobile